Time,TemperatureF,DewpointF,PressureIn,WindDirection,WindDirectionDegrees,WindSpeedMPH,WindSpeedGustMPH,Humidity,HourlyPrecipIn,Conditions,Clouds,dailyrainin,SoftwareType,DateUTC
2013-06-12 00:03:00,68.0,62.0,29.91,WNW,301,1.0,6.0,82,0.00,,,0.00,,2013-06-12 04:03:00,
2013-06-12 00:13:00,68.0,62.0,29.91,WNW,301,1.0,6.0,82,0.00,,,0.00,,2013-06-12 04:13:00,
2013-06-12 00:23:00,68.0,62.0,29.91,West,259,2.0,5.0,82,0.00,,,0.00,,2013-06-12 04:23:00,
2013-06-12 00:34:00,68.0,62.0,29.90,West,267,1.0,4.0,82,0.00,,,0.00,,2013-06-12 04:34:00,
2013-06-12 00:42:00,68.0,62.0,29.90,West,267,1.0,4.0,82,0.00,,,0.00,,2013-06-12 04:42:00,
2013-06-12 00:53:00,68.0,62.0,29.89,West,271,2.0,5.0,82,0.00,,,0.00,,2013-06-12 04:53:00,
2013-06-12 01:03:00,68.0,62.0,29.90,WNW,288,3.0,6.0,82,0.00,,,0.00,,2013-06-12 05:03:00,
2013-06-12 01:12:00,68.0,62.0,29.90,WNW,288,3.0,6.0,82,0.00,,,0.00,,2013-06-12 05:12:00,
2013-06-12 01:22:00,68.0,62.0,29.90,West,274,4.0,7.0,82,0.00,,,0.00,,2013-06-12 05:22:00,
2013-06-12 01:32:00,67.0,61.0,29.89,West,269,3.0,6.0,82,0.00,,,0.00,,2013-06-12 05:32:00,
2013-06-12 01:42:00,67.0,61.0,29.89,West,269,3.0,6.0,82,0.00,,,0.00,,2013-06-12 05:42:00,
2013-06-12 01:52:00,67.0,62.0,29.90,West,275,2.0,6.0,84,0.00,,,0.00,,2013-06-12 05:52:00,
2013-06-12 02:02:00,66.0,61.0,29.89,West,275,2.0,5.0,85,0.00,,,0.00,,2013-06-12 06:02:00,
2013-06-12 02:12:00,66.0,61.0,29.89,West,275,2.0,5.0,85,0.00,,,0.00,,2013-06-12 06:12:00,
2013-06-12 02:22:00,66.0,61.0,29.90,West,272,1.0,4.0,85,0.00,,,0.00,,2013-06-12 06:22:00,
2013-06-12 02:32:00,66.0,62.0,29.89,SW,229,1.0,4.0,86,0.00,,,0.00,,2013-06-12 06:32:00,
2013-06-12 02:42:00,66.0,62.0,29.89,SW,229,1.0,4.0,86,0.00,,,0.00,,2013-06-12 06:42:00,
2013-06-12 02:52:00,65.0,61.0,29.90,West,271,3.0,7.0,86,0.00,,,0.00,,2013-06-12 06:52:00,
2013-06-12 03:02:00,65.0,61.0,29.90,West,271,3.0,7.0,86,0.00,,,0.00,,2013-06-12 07:02:00,
2013-06-12 03:12:00,65.0,61.0,29.91,WSW,240,1.0,4.0,86,0.00,,,0.00,,2013-06-12 07:12:00,
2013-06-12 03:22:00,65.0,61.0,29.91,West,274,1.0,5.0,87,0.00,,,0.00,,2013-06-12 07:22:00,
2013-06-12 03:33:00,65.0,61.0,29.91,SW,217,0.0,3.0,88,0.00,,,0.00,,2013-06-12 07:33:00,
2013-06-12 03:43:00,65.0,61.0,29.91,SW,217,0.0,3.0,88,0.00,,,0.00,,2013-06-12 07:43:00,
2013-06-12 03:53:00,64.0,60.0,29.91,South,171,2.0,5.0,88,0.00,,,0.00,,2013-06-12 07:53:00,
2013-06-12 04:02:00,64.0,61.0,29.91,SSE,158,2.0,6.0,89,0.00,,,0.00,,2013-06-12 08:02:00,
2013-06-12 04:12:00,64.0,61.0,29.91,SSE,158,2.0,6.0,89,0.00,,,0.00,,2013-06-12 08:12:00,
2013-06-12 04:22:00,64.0,61.0,29.91,SSE,158,0.0,3.0,89,0.00,,,0.00,,2013-06-12 08:22:00,
2013-06-12 04:33:00,64.0,61.0,29.91,SSE,158,0.0,3.0,89,0.00,,,0.00,,2013-06-12 08:33:00,
2013-06-12 04:43:00,64.0,61.0,29.91,SSE,163,0.0,2.0,89,0.00,,,0.00,,2013-06-12 08:43:00,
2013-06-12 04:53:00,63.0,60.0,29.91,SSE,163,0.0,1.0,90,0.00,,,0.00,,2013-06-12 08:53:00,
2013-06-12 05:01:00,63.0,60.0,29.91,SSE,163,0.0,1.0,90,0.00,,,0.00,,2013-06-12 09:01:00,
2013-06-12 05:11:00,63.0,60.0,29.91,SSE,163,0.0,0.0,90,0.00,,,0.00,,2013-06-12 09:11:00,
2013-06-12 05:22:00,63.0,60.0,29.91,SSE,163,0.0,2.0,91,0.00,,,0.00,,2013-06-12 09:22:00,
2013-06-12 05:33:00,62.0,60.0,29.91,SSE,163,0.0,3.0,92,0.00,,,0.00,,2013-06-12 09:33:00,
2013-06-12 05:43:00,62.0,60.0,29.91,SSE,163,0.0,3.0,92,0.00,,,0.00,,2013-06-12 09:43:00,
2013-06-12 05:53:00,62.0,60.0,29.91,ESE,122,0.0,4.0,93,0.00,,,0.00,,2013-06-12 09:53:00,
2013-06-12 06:02:00,62.0,60.0,29.91,ESE,122,0.0,4.0,93,0.00,,,0.00,,2013-06-12 10:02:00,
2013-06-12 06:12:00,62.0,60.0,29.91,SE,129,0.0,1.0,93,0.00,,,0.00,,2013-06-12 10:12:00,
2013-06-12 06:23:00,62.0,60.0,29.91,SE,129,0.0,1.0,93,0.00,,,0.00,,2013-06-12 10:23:00,
2013-06-12 06:33:00,62.0,60.0,29.92,SE,129,0.0,1.0,93,0.00,,,0.00,,2013-06-12 10:33:00,
2013-06-12 06:43:00,62.0,60.0,29.91,SE,129,0.0,1.0,93,0.00,,,0.00,,2013-06-12 10:43:00,
2013-06-12 06:53:00,63.0,61.0,29.92,SE,129,0.0,1.0,93,0.00,,,0.00,,2013-06-12 10:53:00,
2013-06-12 07:02:00,63.0,61.0,29.91,SE,129,0.0,0.0,93,0.00,,,0.00,,2013-06-12 11:02:00,
2013-06-12 07:12:00,63.0,61.0,29.91,SE,129,0.0,0.0,93,0.00,,,0.00,,2013-06-12 11:12:00,
2013-06-12 07:24:00,64.0,62.0,29.91,SW,234,0.0,4.0,94,0.00,,,0.00,,2013-06-12 11:24:00,
2013-06-12 07:33:00,64.0,62.0,29.91,SW,234,0.0,4.0,94,0.00,,,0.00,,2013-06-12 11:33:00,
2013-06-12 07:43:00,64.0,62.0,29.91,SW,234,0.0,4.0,94,0.00,,,0.00,,2013-06-12 11:43:00,
2013-06-12 07:53:00,66.0,62.0,29.92,WSW,243,1.0,6.0,88,0.00,,,0.00,,2013-06-12 11:53:00,
2013-06-12 08:02:00,66.0,62.0,29.92,WSW,243,1.0,6.0,88,0.00,,,0.00,,2013-06-12 12:02:00,
2013-06-12 08:11:00,67.0,63.0,29.91,WSW,247,1.0,6.0,87,0.00,,,0.00,,2013-06-12 12:11:00,
2013-06-12 08:23:00,68.0,63.0,29.92,West,279,2.0,5.0,84,0.00,,,0.00,,2013-06-12 12:23:00,
2013-06-12 08:33:00,68.0,63.0,29.92,West,279,2.0,5.0,84,0.00,,,0.00,,2013-06-12 12:33:00,
2013-06-12 08:42:00,69.0,64.0,29.93,West,269,2.0,6.0,84,0.00,,,0.00,,2013-06-12 12:42:00,
2013-06-12 08:53:00,69.0,64.0,29.93,West,269,2.0,6.0,84,0.00,,,0.00,,2013-06-12 12:53:00,
2013-06-12 09:01:00,71.0,65.0,29.91,SW,228,1.0,5.0,81,0.00,,,0.00,,2013-06-12 13:01:00,
2013-06-12 09:12:00,71.0,65.0,29.92,West,275,1.0,8.0,81,0.00,,,0.00,,2013-06-12 13:12:00,
2013-06-12 09:22:00,71.0,65.0,29.92,West,275,1.0,8.0,81,0.00,,,0.00,,2013-06-12 13:22:00,
2013-06-12 09:33:00,71.0,65.0,29.91,West,264,1.0,7.0,82,0.00,,,0.00,,2013-06-12 13:33:00,
2013-06-12 09:43:00,70.0,65.0,29.91,West,280,1.0,6.0,83,0.00,,,0.00,,2013-06-12 13:43:00,
2013-06-12 09:53:00,70.0,65.0,29.91,SSW,209,1.0,4.0,84,0.00,,,0.00,,2013-06-12 13:53:00,
2013-06-12 10:02:00,70.0,65.0,29.91,SSW,209,1.0,4.0,84,0.00,,,0.00,,2013-06-12 14:02:00,
2013-06-12 10:11:00,70.0,66.0,29.91,WSW,238,1.0,4.0,86,0.00,,,0.00,,2013-06-12 14:11:00,
2013-06-12 10:24:00,70.0,66.0,29.91,WSW,238,1.0,4.0,86,0.00,,,0.00,,2013-06-12 14:24:00,
2013-06-12 10:33:00,70.0,66.0,29.91,WSW,238,1.0,4.0,86,0.00,,,0.00,,2013-06-12 14:33:00,
2013-06-12 10:43:00,70.0,66.0,29.91,SW,214,1.0,5.0,86,0.00,,,0.00,,2013-06-12 14:43:00,
2013-06-12 10:53:00,70.0,66.0,29.91,SW,214,1.0,5.0,86,0.00,,,0.00,,2013-06-12 14:53:00,
2013-06-12 11:01:00,72.0,67.0,29.90,West,281,4.0,9.0,84,0.00,,,0.00,,2013-06-12 15:01:00,
2013-06-12 11:12:00,74.0,68.0,29.90,West,277,4.0,8.0,83,0.00,,,0.00,,2013-06-12 15:12:00,
2013-06-12 11:23:00,75.0,68.0,29.90,WSW,258,8.0,14.0,80,0.01,,,0.01,,2013-06-12 15:23:00,
2013-06-12 11:33:00,75.0,68.0,29.90,WSW,258,8.0,14.0,80,0.01,,,0.01,,2013-06-12 15:33:00,
2013-06-12 11:43:00,75.0,68.0,29.90,WSW,258,8.0,14.0,80,0.01,,,0.01,,2013-06-12 15:43:00,
2013-06-12 11:52:00,75.0,68.0,29.90,WSW,258,8.0,14.0,80,0.01,,,0.01,,2013-06-12 15:52:00,
2013-06-12 12:02:00,79.0,70.0,29.89,NNE,20,6.0,13.0,74,0.01,,,0.01,,2013-06-12 16:02:00,
2013-06-12 12:12:00,80.0,70.0,29.89,WNW,289,3.0,15.0,72,0.01,,,0.01,,2013-06-12 16:12:00,
2013-06-12 12:22:00,80.0,70.0,29.89,WNW,289,3.0,15.0,72,0.01,,,0.01,,2013-06-12 16:22:00,
2013-06-12 12:33:00,80.0,71.0,29.89,WNW,303,5.0,16.0,73,0.00,,,0.01,,2013-06-12 16:33:00,
2013-06-12 12:43:00,81.0,70.0,29.89,West,277,6.0,13.0,70,0.00,,,0.01,,2013-06-12 16:43:00,
2013-06-12 12:52:00,81.0,70.0,29.89,West,277,6.0,13.0,70,0.00,,,0.01,,2013-06-12 16:52:00,
2013-06-12 13:01:00,81.0,70.0,29.89,West,281,4.0,13.0,70,0.00,,,0.01,,2013-06-12 17:01:00,
2013-06-12 13:12:00,82.0,70.0,29.88,NNW,335,6.0,14.0,67,0.00,,,0.01,,2013-06-12 17:12:00,
2013-06-12 13:23:00,82.0,70.0,29.88,NNW,335,6.0,14.0,67,0.00,,,0.01,,2013-06-12 17:23:00,
2013-06-12 13:33:00,82.0,70.0,29.88,NNW,335,6.0,14.0,67,0.00,,,0.01,,2013-06-12 17:33:00,
2013-06-12 13:42:00,83.0,70.0,29.88,WSW,237,7.0,19.0,66,0.00,,,0.01,,2013-06-12 17:42:00,
2013-06-12 13:52:00,83.0,70.0,29.88,WSW,237,7.0,19.0,66,0.00,,,0.01,,2013-06-12 17:52:00,
2013-06-12 13:53:00,83.0,71.0,29.88,WNW,286,9.0,13.0,67,0.00,,,0.01,,2013-06-12 17:53:00,
2013-06-12 14:02:00,82.0,70.0,29.87,NW,308,4.0,14.0,68,0.00,,,0.01,,2013-06-12 18:02:00,
2013-06-12 14:12:00,83.0,71.0,29.88,WNW,286,9.0,13.0,67,0.00,,,0.01,,2013-06-12 18:12:00,
2013-06-12 14:22:00,83.0,71.0,29.88,WNW,286,9.0,13.0,67,0.00,,,0.01,,2013-06-12 18:22:00,
2013-06-12 14:33:00,83.0,71.0,29.88,WNW,286,9.0,13.0,67,0.00,,,0.01,,2013-06-12 18:33:00,
2013-06-12 14:43:00,83.0,71.0,29.88,WNW,286,9.0,13.0,67,0.00,,,0.01,,2013-06-12 18:43:00,
2013-06-12 15:02:00,83.0,70.0,29.84,NNW,327,5.0,13.0,64,0.00,,,0.01,,2013-06-12 19:02:00,
2013-06-12 15:11:00,83.0,70.0,29.85,NNW,337,6.0,11.0,64,0.00,,,0.01,,2013-06-12 19:11:00,
2013-06-12 15:22:00,83.0,70.0,29.85,NNW,337,6.0,11.0,64,0.00,,,0.01,,2013-06-12 19:22:00,
2013-06-12 15:32:00,83.0,70.0,29.85,NNW,337,6.0,11.0,64,0.00,,,0.01,,2013-06-12 19:32:00,
2013-06-12 15:42:00,82.0,70.0,29.86,WNW,283,4.0,12.0,67,0.00,,,0.01,,2013-06-12 19:42:00,
2013-06-12 15:52:00,82.0,70.0,29.86,WNW,283,4.0,12.0,67,0.00,,,0.01,,2013-06-12 19:52:00,
2013-06-12 16:01:00,82.0,69.0,29.85,WSW,254,5.0,15.0,65,0.00,,,0.01,,2013-06-12 20:01:00,
2013-06-12 16:11:00,83.0,69.0,29.85,NNW,339,6.0,14.0,63,0.00,,,0.01,,2013-06-12 20:11:00,
2013-06-12 16:22:00,82.0,69.0,29.85,WSW,257,7.0,14.0,64,0.00,,,0.01,,2013-06-12 20:22:00,
2013-06-12 16:32:00,82.0,69.0,29.85,WSW,257,7.0,14.0,64,0.00,,,0.01,,2013-06-12 20:32:00,
2013-06-12 16:43:00,83.0,70.0,29.85,WNW,296,8.0,15.0,65,0.00,,,0.01,,2013-06-12 20:43:00,
2013-06-12 16:54:00,83.0,69.0,29.85,WNW,302,6.0,14.0,63,0.00,,,0.01,,2013-06-12 20:54:00,
2013-06-12 17:01:00,83.0,69.0,29.85,WNW,302,6.0,14.0,63,0.00,,,0.01,,2013-06-12 21:01:00,
2013-06-12 17:11:00,84.0,71.0,29.84,WNW,288,7.0,16.0,65,0.00,,,0.01,,2013-06-12 21:11:00,
2013-06-12 17:22:00,84.0,71.0,29.84,WNW,288,7.0,16.0,65,0.00,,,0.01,,2013-06-12 21:22:00,
2013-06-12 17:33:00,84.0,70.0,29.84,WNW,303,7.0,14.0,62,0.00,,,0.01,,2013-06-12 21:33:00,
2013-06-12 17:43:00,84.0,70.0,29.83,NW,317,5.0,13.0,62,0.00,,,0.01,,2013-06-12 21:43:00,
2013-06-12 17:52:00,84.0,70.0,29.83,NW,317,5.0,13.0,62,0.00,,,0.01,,2013-06-12 21:52:00,
2013-06-12 18:01:00,84.0,70.0,29.83,NW,317,5.0,13.0,62,0.00,,,0.01,,2013-06-12 22:01:00,
2013-06-12 18:11:00,84.0,69.0,29.82,ENE,65,5.0,10.0,60,0.00,,,0.01,,2013-06-12 22:11:00,
2013-06-12 18:22:00,84.0,69.0,29.82,ENE,65,5.0,10.0,60,0.00,,,0.01,,2013-06-12 22:22:00,
2013-06-12 18:32:00,84.0,69.0,29.82,ENE,65,5.0,10.0,60,0.00,,,0.01,,2013-06-12 22:32:00,
2013-06-12 18:43:00,85.0,70.0,29.81,WSW,252,4.0,9.0,60,0.00,,,0.01,,2013-06-12 22:43:00,
2013-06-12 18:52:00,85.0,70.0,29.81,WSW,252,4.0,9.0,60,0.00,,,0.01,,2013-06-12 22:52:00,
2013-06-12 19:02:00,85.0,70.0,29.81,WSW,252,4.0,9.0,60,0.00,,,0.01,,2013-06-12 23:02:00,
2013-06-12 19:12:00,85.0,70.0,29.81,WSW,252,4.0,9.0,60,0.00,,,0.01,,2013-06-12 23:12:00,
2013-06-12 19:22:00,85.0,70.0,29.80,West,273,4.0,7.0,61,0.00,,,0.01,,2013-06-12 23:22:00,
2013-06-12 19:32:00,85.0,70.0,29.80,WNW,298,4.0,8.0,61,0.00,,,0.01,,2013-06-12 23:32:00,
2013-06-12 19:42:00,84.0,69.0,29.81,West,274,4.0,8.0,61,0.00,,,0.01,,2013-06-12 23:42:00,
2013-06-12 19:52:00,84.0,69.0,29.81,West,274,4.0,8.0,61,0.00,,,0.01,,2013-06-12 23:52:00,
2013-06-12 20:01:00,84.0,69.0,29.81,West,274,4.0,8.0,61,0.00,,,0.01,,2013-06-13 00:01:00,
2013-06-12 20:12:00,84.0,69.0,29.81,West,274,4.0,8.0,61,0.00,,,0.01,,2013-06-13 00:12:00,
2013-06-12 20:22:00,84.0,69.0,29.81,West,274,4.0,8.0,61,0.00,,,0.01,,2013-06-13 00:22:00,
2013-06-12 20:33:00,83.0,69.0,29.80,West,277,2.0,5.0,62,0.00,,,0.01,,2013-06-13 00:33:00,
2013-06-12 20:43:00,82.0,68.0,29.80,West,281,0.0,5.0,62,0.00,,,0.01,,2013-06-13 00:43:00,
2013-06-12 20:52:00,82.0,68.0,29.80,West,281,0.0,5.0,62,0.00,,,0.01,,2013-06-13 00:52:00,
2013-06-12 21:01:00,81.0,68.0,29.80,West,281,1.0,3.0,64,0.00,,,0.01,,2013-06-13 01:01:00,
2013-06-12 21:12:00,81.0,69.0,29.80,West,281,0.0,0.0,67,0.00,,,0.01,,2013-06-13 01:12:00,
2013-06-12 21:22:00,81.0,69.0,29.80,West,281,0.0,0.0,67,0.00,,,0.01,,2013-06-13 01:22:00,
2013-06-12 21:32:00,80.0,68.0,29.80,West,281,0.0,0.0,68,0.00,,,0.01,,2013-06-13 01:32:00,
2013-06-12 21:43:00,78.0,68.0,29.80,West,281,0.0,0.0,71,0.00,,,0.01,,2013-06-13 01:43:00,
2013-06-12 21:53:00,78.0,68.0,29.80,West,281,0.0,0.0,71,0.00,,,0.01,,2013-06-13 01:53:00,
2013-06-12 22:02:00,77.0,68.0,29.81,West,281,0.0,1.0,75,0.00,,,0.01,,2013-06-13 02:02:00,
2013-06-12 22:12:00,76.0,68.0,29.82,West,281,0.0,1.0,77,0.00,,,0.01,,2013-06-13 02:12:00,
2013-06-12 22:22:00,76.0,68.0,29.82,West,281,0.0,1.0,77,0.00,,,0.01,,2013-06-13 02:22:00,
2013-06-12 22:33:00,75.0,68.0,29.82,West,281,0.0,0.0,78,0.00,,,0.01,,2013-06-13 02:33:00,
2013-06-12 22:43:00,75.0,68.0,29.82,West,281,0.0,0.0,78,0.00,,,0.01,,2013-06-13 02:43:00,
2013-06-12 22:52:00,75.0,68.0,29.82,West,281,0.0,0.0,78,0.00,,,0.01,,2013-06-13 02:52:00,
2013-06-12 23:02:00,73.0,67.0,29.82,West,281,0.0,1.0,82,0.00,,,0.01,,2013-06-13 03:02:00,
2013-06-12 23:12:00,73.0,67.0,29.82,West,281,0.0,1.0,82,0.00,,,0.01,,2013-06-13 03:12:00,
2013-06-12 23:22:00,73.0,68.0,29.82,West,281,0.0,0.0,83,0.00,,,0.01,,2013-06-13 03:22:00,
2013-06-12 23:33:00,73.0,68.0,29.82,West,281,0.0,0.0,83,0.00,,,0.01,,2013-06-13 03:33:00,
2013-06-12 23:43:00,73.0,68.0,29.82,West,281,0.0,0.0,83,0.00,,,0.01,,2013-06-13 03:43:00,
2013-06-12 23:52:00,72.0,67.0,29.80,West,281,0.0,0.0,84,0.00,,,0.01,,2013-06-13 03:52:00,